sensor_id;sensor_type;location;lat;lon;timestamp;pressure;altitude;pressure_sealevel;temperature;humidity
35918;BME280;22011;59.912;30.300;2022-07-10T00:02:16;100906.44;;;18.81;71.00
35918;BME280;22011;59.912;30.300;2022-07-10T00:04:44;100910.19;;;18.80;70.16
35918;BME280;22011;59.912;30.300;2022-07-10T00:07:11;100912.28;;;18.78;70.83
35918;BME280;22011;59.912;30.300;2022-07-10T00:09:39;100911.53;;;18.64;71.56
35918;BME280;22011;59.912;30.300;2022-07-10T00:12:07;100914.00;;;18.66;71.13
35918;BME280;22011;59.912;30.300;2022-07-10T00:14:35;100909.63;;;19.03;68.82
35918;BME280;22011;59.912;30.300;2022-07-10T00:17:02;100908.91;;;18.82;70.39
35918;BME280;22011;59.912;30.300;2022-07-10T00:19:31;100915.50;;;18.93;69.86
35918;BME280;22011;59.912;30.300;2022-07-10T00:21:59;100908.81;;;19.02;69.65
35918;BME280;22011;59.912;30.300;2022-07-10T00:24:26;100905.78;;;19.55;67.74
35918;BME280;22011;59.912;30.300;2022-07-10T00:26:54;100908.94;;;19.45;67.41
35918;BME280;22011;59.912;30.300;2022-07-10T00:29:22;100906.06;;;19.40;67.98
35918;BME280;22011;59.912;30.300;2022-07-10T00:31:49;100910.16;;;19.18;69.20
35918;BME280;22011;59.912;30.300;2022-07-10T00:34:17;100906.28;;;19.07;69.33
35918;BME280;22011;59.912;30.300;2022-07-10T00:36:46;100915.44;;;19.06;69.92
35918;BME280;22011;59.912;30.300;2022-07-10T00:39:13;100908.88;;;18.89;70.27
35918;BME280;22011;59.912;30.300;2022-07-10T00:41:41;100911.06;;;19.05;70.13
35918;BME280;22011;59.912;30.300;2022-07-10T00:44:09;100912.81;;;19.24;69.00
35918;BME280;22011;59.912;30.300;2022-07-10T00:46:37;100908.66;;;19.28;68.46
35918;BME280;22011;59.912;30.300;2022-07-10T00:49:06;100914.13;;;19.15;69.03
35918;BME280;22011;59.912;30.300;2022-07-10T00:51:35;100918.53;;;19.41;68.61
35918;BME280;22011;59.912;30.300;2022-07-10T00:54:05;100915.66;;;19.86;67.02
35918;BME280;22011;59.912;30.300;2022-07-10T00:56:33;100915.44;;;19.69;67.20
35918;BME280;22011;59.912;30.300;2022-07-10T00:59:01;100917.03;;;19.52;67.98
35918;BME280;22011;59.912;30.300;2022-07-10T01:01:28;100913.81;;;19.30;68.91
35918;BME280;22011;59.912;30.300;2022-07-10T01:03:56;100919.56;;;19.09;70.29
35918;BME280;22011;59.912;30.300;2022-07-10T01:06:24;100909.69;;;18.96;70.84
35918;BME280;22011;59.912;30.300;2022-07-10T01:08:53;100914.53;;;18.81;71.82
35918;BME280;22011;59.912;30.300;2022-07-10T01:11:22;100922.50;;;18.69;72.23
35918;BME280;22011;59.912;30.300;2022-07-10T01:13:50;100915.59;;;18.73;72.72
35918;BME280;22011;59.912;30.300;2022-07-10T01:16:18;100913.81;;;18.60;72.95
35918;BME280;22011;59.912;30.300;2022-07-10T01:18:46;100909.50;;;18.46;74.08
35918;BME280;22011;59.912;30.300;2022-07-10T01:21:24;100911.97;;;18.61;74.70
35918;BME280;22011;59.912;30.300;2022-07-10T01:23:52;100904.31;;;18.45;74.27
35918;BME280;22011;59.912;30.300;2022-07-10T01:26:20;100910.34;;;18.40;74.48
35918;BME280;22011;59.912;30.300;2022-07-10T01:28:51;100918.88;;;18.37;74.55
35918;BME280;22011;59.912;30.300;2022-07-10T01:31:19;100914.47;;;18.43;74.58
35918;BME280;22011;59.912;30.300;2022-07-10T01:33:47;100915.72;;;18.47;75.15
35918;BME280;22011;59.912;30.300;2022-07-10T01:36:14;100922.38;;;18.44;74.61
35918;BME280;22011;59.912;30.300;2022-07-10T01:38:44;100924.25;;;18.44;75.45
35918;BME280;22011;59.912;30.300;2022-07-10T01:41:12;100922.78;;;18.41;76.15
35918;BME280;22011;59.912;30.300;2022-07-10T01:43:40;100920.31;;;18.33;76.61
35918;BME280;22011;59.912;30.300;2022-07-10T01:46:09;100918.25;;;18.35;77.06
35918;BME280;22011;59.912;30.300;2022-07-10T01:48:38;100912.63;;;18.88;74.04
35918;BME280;22011;59.912;30.300;2022-07-10T01:51:06;100913.88;;;18.85;73.88
35918;BME280;22011;59.912;30.300;2022-07-10T01:53:35;100908.19;;;19.00;73.29
35918;BME280;22011;59.912;30.300;2022-07-10T01:56:06;100911.97;;;18.92;75.03
35918;BME280;22011;59.912;30.300;2022-07-10T01:58:34;100911.09;;;18.67;74.93
35918;BME280;22011;59.912;30.300;2022-07-10T02:01:02;100912.34;;;18.58;76.02
35918;BME280;22011;59.912;30.300;2022-07-10T02:03:30;100913.81;;;18.60;75.54
35918;BME280;22011;59.912;30.300;2022-07-10T02:06:16;100906.69;;;19.11;73.98
35918;BME280;22011;59.912;30.300;2022-07-10T02:08:44;100912.16;;;18.98;74.71
35918;BME280;22011;59.912;30.300;2022-07-10T02:11:13;100906.38;;;18.94;74.10
35918;BME280;22011;59.912;30.300;2022-07-10T02:13:40;100895.88;;;18.73;74.59
35918;BME280;22011;59.912;30.300;2022-07-10T02:16:08;100887.25;;;18.57;75.06
35918;BME280;22011;59.912;30.300;2022-07-10T02:18:36;100892.91;;;18.43;75.54
35918;BME280;22011;59.912;30.300;2022-07-10T02:21:05;100894.97;;;18.47;75.70
35918;BME280;22011;59.912;30.300;2022-07-10T02:23:33;100886.25;;;18.45;76.02
35918;BME280;22011;59.912;30.300;2022-07-10T02:26:01;100887.53;;;18.36;75.27
35918;BME280;22011;59.912;30.300;2022-07-10T02:28:30;100885.44;;;18.38;75.59
35918;BME280;22011;59.912;30.300;2022-07-10T02:30:58;100888.56;;;18.42;75.41
35918;BME280;22011;59.912;30.300;2022-07-10T02:33:26;100877.72;;;18.48;75.57
35918;BME280;22011;59.912;30.300;2022-07-10T02:35:53;100882.50;;;18.46;75.55
35918;BME280;22011;59.912;30.300;2022-07-10T02:38:21;100879.81;;;18.46;74.10
35918;BME280;22011;59.912;30.300;2022-07-10T02:40:48;100878.59;;;18.42;74.72
35918;BME280;22011;59.912;30.300;2022-07-10T02:43:16;100881.53;;;18.34;74.71
35918;BME280;22011;59.912;30.300;2022-07-10T02:45:45;100882.56;;;18.33;74.86
35918;BME280;22011;59.912;30.300;2022-07-10T02:48:14;100882.94;;;18.43;74.59
35918;BME280;22011;59.912;30.300;2022-07-10T02:50:41;100875.00;;;18.55;73.74
35918;BME280;22011;59.912;30.300;2022-07-10T02:53:09;100884.31;;;18.66;73.93
35918;BME280;22011;59.912;30.300;2022-07-10T02:55:37;100890.25;;;18.81;73.68
35918;BME280;22011;59.912;30.300;2022-07-10T02:58:05;100888.59;;;18.80;72.65
35918;BME280;22011;59.912;30.300;2022-07-10T03:00:32;100884.22;;;18.79;73.72
35918;BME280;22011;59.912;30.300;2022-07-10T03:03:01;100889.28;;;18.69;73.88
35918;BME280;22011;59.912;30.300;2022-07-10T03:05:29;100876.06;;;18.60;74.14
35918;BME280;22011;59.912;30.300;2022-07-10T03:07:56;100871.47;;;18.54;75.18
35918;BME280;22011;59.912;30.300;2022-07-10T03:10:24;100883.56;;;18.45;75.08
35918;BME280;22011;59.912;30.300;2022-07-10T03:12:52;100875.22;;;18.53;74.81
35918;BME280;22011;59.912;30.300;2022-07-10T03:15:19;100876.66;;;18.56;75.03
35918;BME280;22011;59.912;30.300;2022-07-10T03:17:47;100870.88;;;18.52;74.99
35918;BME280;22011;59.912;30.300;2022-07-10T03:20:16;100879.56;;;18.54;75.15
35918;BME280;22011;59.912;30.300;2022-07-10T03:22:44;100878.75;;;18.60;74.08
35918;BME280;22011;59.912;30.300;2022-07-10T03:25:11;100873.75;;;18.64;74.22
35918;BME280;22011;59.912;30.300;2022-07-10T03:27:40;100875.16;;;19.05;73.96
35918;BME280;22011;59.912;30.300;2022-07-10T03:30:08;100875.81;;;19.00;73.43
35918;BME280;22011;59.912;30.300;2022-07-10T03:32:36;100865.44;;;18.97;73.79
35918;BME280;22011;59.912;30.300;2022-07-10T03:35:04;100870.31;;;18.82;74.13
35918;BME280;22011;59.912;30.300;2022-07-10T03:37:33;100874.47;;;18.78;74.89
35918;BME280;22011;59.912;30.300;2022-07-10T03:40:01;100866.19;;;18.73;74.91
35918;BME280;22011;59.912;30.300;2022-07-10T03:42:28;100874.28;;;18.73;74.81
35918;BME280;22011;59.912;30.300;2022-07-10T03:44:56;100862.47;;;19.05;74.00
35918;BME280;22011;59.912;30.300;2022-07-10T03:47:24;100863.53;;;19.04;74.21
35918;BME280;22011;59.912;30.300;2022-07-10T03:49:51;100864.38;;;18.98;74.81
35918;BME280;22011;59.912;30.300;2022-07-10T03:52:19;100867.56;;;19.20;73.86
35918;BME280;22011;59.912;30.300;2022-07-10T03:54:48;100878.78;;;19.73;71.02
35918;BME280;22011;59.912;30.300;2022-07-10T03:57:15;100872.63;;;20.03;69.82
35918;BME280;22011;59.912;30.300;2022-07-10T04:00:00;100872.34;;;20.11;68.88
35918;BME280;22011;59.912;30.300;2022-07-10T04:02:38;100874.38;;;19.97;69.06
35918;BME280;22011;59.912;30.300;2022-07-10T04:05:06;100865.22;;;20.16;68.27
35918;BME280;22011;59.912;30.300;2022-07-10T04:07:34;100867.63;;;20.43;67.42
35918;BME280;22011;59.912;30.300;2022-07-10T04:10:04;100864.63;;;20.51;66.14
35918;BME280;22011;59.912;30.300;2022-07-10T04:12:31;100863.44;;;20.77;65.79
35918;BME280;22011;59.912;30.300;2022-07-10T04:14:59;100867.56;;;20.91;64.80
35918;BME280;22011;59.912;30.300;2022-07-10T04:17:26;100872.97;;;20.79;64.89
35918;BME280;22011;59.912;30.300;2022-07-10T04:19:54;100880.44;;;20.96;64.23
35918;BME280;22011;59.912;30.300;2022-07-10T04:22:22;100882.88;;;20.85;65.94
35918;BME280;22011;59.912;30.300;2022-07-10T04:24:50;100888.44;;;20.61;66.98
35918;BME280;22011;59.912;30.300;2022-07-10T04:27:19;100885.34;;;20.57;66.78
35918;BME280;22011;59.912;30.300;2022-07-10T04:29:47;100880.97;;;20.38;67.03
35918;BME280;22011;59.912;30.300;2022-07-10T04:32:15;100882.72;;;20.69;65.55
35918;BME280;22011;59.912;30.300;2022-07-10T04:34:43;100887.38;;;20.62;65.56
35918;BME280;22011;59.912;30.300;2022-07-10T04:37:11;100883.31;;;20.71;65.26
35918;BME280;22011;59.912;30.300;2022-07-10T04:39:39;100889.94;;;20.86;65.41
35918;BME280;22011;59.912;30.300;2022-07-10T04:42:07;100880.38;;;20.84;66.16
35918;BME280;22011;59.912;30.300;2022-07-10T04:44:37;100876.09;;;20.65;67.14
35918;BME280;22011;59.912;30.300;2022-07-10T04:47:05;100887.84;;;20.59;66.91
35918;BME280;22011;59.912;30.300;2022-07-10T04:49:33;100891.59;;;20.58;67.59
35918;BME280;22011;59.912;30.300;2022-07-10T04:52:01;100890.50;;;20.77;66.59
35918;BME280;22011;59.912;30.300;2022-07-10T04:54:29;100890.06;;;20.80;64.85
35918;BME280;22011;59.912;30.300;2022-07-10T04:56:56;100896.94;;;21.06;64.53
35918;BME280;22011;59.912;30.300;2022-07-10T04:59:24;100892.22;;;21.01;65.12
35918;BME280;22011;59.912;30.300;2022-07-10T05:01:53;100894.88;;;21.19;64.37
35918;BME280;22011;59.912;30.300;2022-07-10T05:04:20;100889.75;;;21.30;65.02
35918;BME280;22011;59.912;30.300;2022-07-10T05:06:48;100889.56;;;21.66;62.69
35918;BME280;22011;59.912;30.300;2022-07-10T05:09:16;100890.84;;;21.52;63.71
35918;BME280;22011;59.912;30.300;2022-07-10T05:11:45;100900.28;;;21.49;63.66
35918;BME280;22011;59.912;30.300;2022-07-10T05:14:13;100901.22;;;21.13;65.71
35918;BME280;22011;59.912;30.300;2022-07-10T05:16:42;100900.22;;;20.96;66.44
35918;BME280;22011;59.912;30.300;2022-07-10T05:19:11;100912.69;;;20.97;65.96
35918;BME280;22011;59.912;30.300;2022-07-10T05:21:38;100899.44;;;21.07;65.61
35918;BME280;22011;59.912;30.300;2022-07-10T05:24:06;100894.09;;;21.31;63.15
35918;BME280;22011;59.912;30.300;2022-07-10T05:26:35;100906.50;;;21.38;64.50
35918;BME280;22011;59.912;30.300;2022-07-10T05:29:03;100900.53;;;21.83;62.06
35918;BME280;22011;59.912;30.300;2022-07-10T05:31:30;100895.53;;;21.45;62.62
35918;BME280;22011;59.912;30.300;2022-07-10T05:33:58;100901.34;;;21.83;62.18
35918;BME280;22011;59.912;30.300;2022-07-10T05:36:27;100894.00;;;21.96;60.92
35918;BME280;22011;59.912;30.300;2022-07-10T05:38:54;100901.00;;;22.03;60.95
35918;BME280;22011;59.912;30.300;2022-07-10T05:41:22;100902.28;;;21.89;60.80
35918;BME280;22011;59.912;30.300;2022-07-10T05:43:49;100902.06;;;21.67;61.76
35918;BME280;22011;59.912;30.300;2022-07-10T05:46:17;100899.22;;;21.50;60.61
35918;BME280;22011;59.912;30.300;2022-07-10T05:48:45;100891.66;;;21.52;60.93
35918;BME280;22011;59.912;30.300;2022-07-10T05:51:12;100895.19;;;21.11;62.19
35918;BME280;22011;59.912;30.300;2022-07-10T05:53:41;100903.81;;;21.20;62.83
35918;BME280;22011;59.912;30.300;2022-07-10T05:56:09;100899.66;;;21.06;64.07
35918;BME280;22011;59.912;30.300;2022-07-10T05:58:36;100891.53;;;21.47;62.88
35918;BME280;22011;59.912;30.300;2022-07-10T06:01:04;100890.59;;;21.42;61.90
35918;BME280;22011;59.912;30.300;2022-07-10T06:03:32;100893.06;;;21.43;63.01
35918;BME280;22011;59.912;30.300;2022-07-10T06:05:59;100897.63;;;21.31;62.28
35918;BME280;22011;59.912;30.300;2022-07-10T06:08:27;100897.41;;;21.33;60.80
35918;BME280;22011;59.912;30.300;2022-07-10T06:11:00;100892.50;;;21.65;60.05
35918;BME280;22011;59.912;30.300;2022-07-10T06:13:31;100893.56;;;21.52;59.95
35918;BME280;22011;59.912;30.300;2022-07-10T06:15:58;100893.31;;;21.42;60.79
35918;BME280;22011;59.912;30.300;2022-07-10T06:18:27;100899.06;;;21.34;60.04
35918;BME280;22011;59.912;30.300;2022-07-10T06:20:54;100898.47;;;21.32;61.41
35918;BME280;22011;59.912;30.300;2022-07-10T06:23:22;100903.16;;;21.25;62.18
35918;BME280;22011;59.912;30.300;2022-07-10T06:25:50;100899.06;;;21.34;60.63
35918;BME280;22011;59.912;30.300;2022-07-10T06:28:19;100906.16;;;21.46;60.68
35918;BME280;22011;59.912;30.300;2022-07-10T06:30:47;100906.16;;;21.46;60.30
35918;BME280;22011;59.912;30.300;2022-07-10T06:33:14;100901.09;;;21.50;60.49
35918;BME280;22011;59.912;30.300;2022-07-10T06:35:42;100901.44;;;21.53;61.36
35918;BME280;22011;59.912;30.300;2022-07-10T06:38:10;100907.81;;;21.47;61.48
35918;BME280;22011;59.912;30.300;2022-07-10T06:40:38;100908.28;;;21.44;61.20
35918;BME280;22011;59.912;30.300;2022-07-10T06:43:05;100896.00;;;21.42;61.99
35918;BME280;22011;59.912;30.300;2022-07-10T06:45:34;100901.66;;;21.40;62.43
35918;BME280;22011;59.912;30.300;2022-07-10T06:48:02;100897.41;;;21.33;61.47
35918;BME280;22011;59.912;30.300;2022-07-10T06:50:30;100894.94;;;21.43;61.68
35918;BME280;22011;59.912;30.300;2022-07-10T06:53:00;100895.91;;;21.48;61.22
35918;BME280;22011;59.912;30.300;2022-07-10T06:55:28;100897.94;;;21.65;59.84
35918;BME280;22011;59.912;30.300;2022-07-10T06:57:56;100894.50;;;21.58;60.75
35918;BME280;22011;59.912;30.300;2022-07-10T07:00:23;100890.03;;;21.63;59.54
35918;BME280;22011;59.912;30.300;2022-07-10T07:02:53;100899.47;;;21.72;60.02
35918;BME280;22011;59.912;30.300;2022-07-10T07:05:20;100891.44;;;21.77;59.51
35918;BME280;22011;59.912;30.300;2022-07-10T07:07:48;100885.19;;;21.77;59.36
35918;BME280;22011;59.912;30.300;2022-07-10T07:10:16;100891.91;;;21.86;58.79
35918;BME280;22011;59.912;30.300;2022-07-10T07:12:43;100899.19;;;21.85;58.95
35918;BME280;22011;59.912;30.300;2022-07-10T07:15:11;100897.22;;;21.81;58.42
35918;BME280;22011;59.912;30.300;2022-07-10T07:17:41;100901.47;;;21.77;59.44
35918;BME280;22011;59.912;30.300;2022-07-10T07:20:35;100905.59;;;21.79;60.04
35918;BME280;22011;59.912;30.300;2022-07-10T07:23:21;100900.75;;;21.70;59.38
35918;BME280;22011;59.912;30.300;2022-07-10T07:25:48;100899.44;;;21.84;59.75
35918;BME280;22011;59.912;30.300;2022-07-10T07:28:22;100897.91;;;21.88;60.86
35918;BME280;22011;59.912;30.300;2022-07-10T07:30:50;100887.75;;;22.30;60.72
35918;BME280;22011;59.912;30.300;2022-07-10T07:33:17;100892.47;;;22.23;60.01
35918;BME280;22011;59.912;30.300;2022-07-10T07:35:46;100886.34;;;22.28;59.65
35918;BME280;22011;59.912;30.300;2022-07-10T07:38:14;100884.00;;;22.19;59.40
35918;BME280;22011;59.912;30.300;2022-07-10T07:40:42;100882.88;;;22.44;59.30
35918;BME280;22011;59.912;30.300;2022-07-10T07:43:09;100888.81;;;22.29;59.90
35918;BME280;22011;59.912;30.300;2022-07-10T07:45:38;100890.22;;;22.32;60.12
35918;BME280;22011;59.912;30.300;2022-07-10T07:48:05;100889.59;;;22.41;58.77
35918;BME280;22011;59.912;30.300;2022-07-10T07:50:35;100896.59;;;22.37;59.98
35918;BME280;22011;59.912;30.300;2022-07-10T07:53:05;100897.72;;;22.53;59.77
35918;BME280;22011;59.912;30.300;2022-07-10T07:55:33;100884.97;;;22.54;58.88
35918;BME280;22011;59.912;30.300;2022-07-10T07:58:01;100884.66;;;22.38;58.94
35918;BME280;22011;59.912;30.300;2022-07-10T08:00:33;100884.66;;;22.38;59.67
35918;BME280;22011;59.912;30.300;2022-07-10T08:03:00;100872.88;;;22.33;59.02
35918;BME280;22011;59.912;30.300;2022-07-10T08:05:28;100881.00;;;22.33;60.87
35918;BME280;22011;59.912;30.300;2022-07-10T08:07:58;100879.84;;;22.29;61.23
35918;BME280;22011;59.912;30.300;2022-07-10T08:10:34;100885.50;;;22.27;60.83
35918;BME280;22011;59.912;30.300;2022-07-10T08:13:02;100892.09;;;22.31;59.68
35918;BME280;22011;59.912;30.300;2022-07-10T08:15:30;100889.13;;;22.44;58.69
35918;BME280;22011;59.912;30.300;2022-07-10T08:17:58;100889.53;;;22.65;58.44
35918;BME280;22011;59.912;30.300;2022-07-10T08:20:30;100890.53;;;22.87;57.51
35918;BME280;22011;59.912;30.300;2022-07-10T08:22:58;100891.38;;;23.04;57.34
35918;BME280;22011;59.912;30.300;2022-07-10T08:25:26;100894.38;;;23.20;56.97
35918;BME280;22011;59.912;30.300;2022-07-10T08:27:59;100890.34;;;23.39;56.82
35918;BME280;22011;59.912;30.300;2022-07-10T08:30:27;100895.44;;;23.19;56.93
35918;BME280;22011;59.912;30.300;2022-07-10T08:32:55;100896.19;;;23.14;57.73
35918;BME280;22011;59.912;30.300;2022-07-10T08:35:23;100891.25;;;23.28;55.95
35918;BME280;22011;59.912;30.300;2022-07-10T08:37:50;100883.94;;;23.45;55.69
35918;BME280;22011;59.912;30.300;2022-07-10T08:40:22;100893.09;;;23.56;54.60
35918;BME280;22011;59.912;30.300;2022-07-10T08:42:50;100890.25;;;23.34;54.98
35918;BME280;22011;59.912;30.300;2022-07-10T08:45:19;100895.88;;;23.27;55.97
35918;BME280;22011;59.912;30.300;2022-07-10T08:47:46;100884.06;;;23.22;55.38
35918;BME280;22011;59.912;30.300;2022-07-10T08:50:21;100895.88;;;23.27;56.31
35918;BME280;22011;59.912;30.300;2022-07-10T08:52:52;100890.41;;;23.10;56.81
35918;BME280;22011;59.912;30.300;2022-07-10T08:55:25;100894.50;;;22.96;56.81
35918;BME280;22011;59.912;30.300;2022-07-10T08:57:53;100897.13;;;22.91;57.69
35918;BME280;22011;59.912;30.300;2022-07-10T09:00:23;100896.72;;;22.82;58.38
35918;BME280;22011;59.912;30.300;2022-07-10T09:02:53;100890.44;;;22.82;57.65
35918;BME280;22011;59.912;30.300;2022-07-10T09:05:20;100889.63;;;22.70;58.13
35918;BME280;22011;59.912;30.300;2022-07-10T09:07:48;100892.59;;;22.68;57.45
35918;BME280;22011;59.912;30.300;2022-07-10T09:10:19;100897.31;;;22.73;57.56
35918;BME280;22011;59.912;30.300;2022-07-10T09:12:53;100892.47;;;22.75;59.38
35918;BME280;22011;59.912;30.300;2022-07-10T09:15:22;100895.56;;;22.67;58.40
35918;BME280;22011;59.912;30.300;2022-07-10T09:17:52;100891.97;;;22.78;57.52
35918;BME280;22011;59.912;30.300;2022-07-10T09:20:31;100883.88;;;22.95;58.28
35918;BME280;22011;59.912;30.300;2022-07-10T09:23:08;100883.47;;;22.86;56.97
35918;BME280;22011;59.912;30.300;2022-07-10T09:25:37;100887.97;;;22.80;57.52
35918;BME280;22011;59.912;30.300;2022-07-10T09:28:04;100877.13;;;22.69;57.99
35918;BME280;22011;59.912;30.300;2022-07-10T09:30:37;100875.72;;;22.66;57.59
35918;BME280;22011;59.912;30.300;2022-07-10T09:33:22;100874.50;;;22.86;57.48
35918;BME280;22011;59.912;30.300;2022-07-10T09:35:59;100878.03;;;22.86;56.48
35918;BME280;22011;59.912;30.300;2022-07-10T09:38:49;100879.34;;;23.00;56.15
35918;BME280;22011;59.912;30.300;2022-07-10T09:41:19;100873.56;;;22.80;58.17
35918;BME280;22011;59.912;30.300;2022-07-10T09:43:48;100869.81;;;22.69;58.55
35918;BME280;22011;59.912;30.300;2022-07-10T09:46:20;100867.06;;;22.81;58.74
35918;BME280;22011;59.912;30.300;2022-07-10T09:49:09;100872.41;;;22.93;58.27
35918;BME280;22011;59.912;30.300;2022-07-10T09:51:40;100874.41;;;22.80;56.75
35918;BME280;22011;59.912;30.300;2022-07-10T09:54:11;100869.53;;;22.99;56.03
35918;BME280;22011;59.912;30.300;2022-07-10T09:56:40;100868.97;;;22.97;56.39
35918;BME280;22011;59.912;30.300;2022-07-10T09:59:10;100870.22;;;23.06;55.81
35918;BME280;22011;59.912;30.300;2022-07-10T10:01:43;100869.00;;;23.14;55.11
35918;BME280;22011;59.912;30.300;2022-07-10T10:04:13;100871.47;;;23.15;54.74
35918;BME280;22011;59.912;30.300;2022-07-10T10:06:42;100870.31;;;23.11;54.88
35918;BME280;22011;59.912;30.300;2022-07-10T10:09:14;100872.78;;;23.13;55.35
35918;BME280;22011;59.912;30.300;2022-07-10T10:11:44;100876.06;;;23.15;55.17
35918;BME280;22011;59.912;30.300;2022-07-10T10:14:15;100879.22;;;23.24;55.11
35918;BME280;22011;59.912;30.300;2022-07-10T10:16:46;100873.78;;;23.24;54.63
35918;BME280;22011;59.912;30.300;2022-07-10T10:19:18;100872.97;;;23.40;54.59
35918;BME280;22011;59.912;30.300;2022-07-10T10:22:18;100873.72;;;23.52;54.37
35918;BME280;22011;59.912;30.300;2022-07-10T10:24:46;100876.91;;;23.49;55.78
35918;BME280;22011;59.912;30.300;2022-07-10T10:27:15;100878.06;;;23.53;53.73
35918;BME280;22011;59.912;30.300;2022-07-10T10:29:43;100870.53;;;23.55;53.78
35918;BME280;22011;59.912;30.300;2022-07-10T10:32:11;100868.38;;;23.57;53.38
35918;BME280;22011;59.912;30.300;2022-07-10T10:34:42;100876.03;;;23.60;53.39
35918;BME280;22011;59.912;30.300;2022-07-10T10:37:35;100866.78;;;23.78;53.91
35918;BME280;22011;59.912;30.300;2022-07-10T10:40:08;100875.53;;;23.63;53.96
35918;BME280;22011;59.912;30.300;2022-07-10T10:42:37;100875.88;;;23.67;53.61
35918;BME280;22011;59.912;30.300;2022-07-10T10:45:23;100881.53;;;23.82;53.91
35918;BME280;22011;59.912;30.300;2022-07-10T10:48:00;100876.34;;;23.80;55.11
35918;BME280;22011;59.912;30.300;2022-07-10T10:50:40;100879.66;;;23.83;54.07
35918;BME280;22011;59.912;30.300;2022-07-10T10:53:15;100872.97;;;23.73;53.31
35918;BME280;22011;59.912;30.300;2022-07-10T10:58:48;100872.16;;;23.56;53.05
35918;BME280;22011;59.912;30.300;2022-07-10T11:01:29;100885.50;;;23.74;53.43
35918;BME280;22011;59.912;30.300;2022-07-10T11:04:15;100885.84;;;23.78;53.41
35918;BME280;22011;59.912;30.300;2022-07-10T11:06:46;100881.22;;;23.62;52.90
35918;BME280;22011;59.912;30.300;2022-07-10T11:09:28;100877.44;;;23.79;53.09
35918;BME280;22011;59.912;30.300;2022-07-10T11:12:00;100871.34;;;23.72;54.48
35918;BME280;22011;59.912;30.300;2022-07-10T11:14:29;100886.59;;;23.57;52.75
35918;BME280;22011;59.912;30.300;2022-07-10T11:16:57;100872.63;;;23.53;53.72
35918;BME280;22011;59.912;30.300;2022-07-10T11:19:26;100872.63;;;23.53;54.04
35918;BME280;22011;59.912;30.300;2022-07-10T11:22:25;100871.84;;;23.69;55.17
35918;BME280;22011;59.912;30.300;2022-07-10T11:25:03;100871.34;;;23.56;55.42
35918;BME280;22011;59.912;30.300;2022-07-10T11:30:50;100879.84;;;23.59;55.51
35918;BME280;22011;59.912;30.300;2022-07-10T11:33:19;100868.03;;;23.37;56.20
35918;BME280;22011;59.912;30.300;2022-07-10T11:35:49;100877.59;;;23.39;56.37
35918;BME280;22011;59.912;30.300;2022-07-10T11:38:23;100877.41;;;23.46;57.65
35918;BME280;22011;59.912;30.300;2022-07-10T11:40:51;100874.13;;;23.27;57.25
35918;BME280;22011;59.912;30.300;2022-07-10T11:43:21;100873.78;;;23.40;58.06
35918;BME280;22011;59.912;30.300;2022-07-10T11:45:50;100872.31;;;23.33;57.67
35918;BME280;22011;59.912;30.300;2022-07-10T11:48:21;100869.50;;;23.28;57.65
35918;BME280;22011;59.912;30.300;2022-07-10T11:50:50;100876.91;;;23.15;57.60
35918;BME280;22011;59.912;30.300;2022-07-10T11:53:24;100877.47;;;23.17;58.16
35918;BME280;22011;59.912;30.300;2022-07-10T11:55:51;100878.19;;;22.96;58.17
35918;BME280;22011;59.912;30.300;2022-07-10T11:58:20;100883.53;;;22.91;57.37
35918;BME280;22011;59.912;30.300;2022-07-10T12:00:58;100885.13;;;23.04;57.66
35918;BME280;22011;59.912;30.300;2022-07-10T12:03:28;100881.28;;;22.88;57.88
35918;BME280;22011;59.912;30.300;2022-07-10T12:06:01;100887.91;;;22.92;56.96
35918;BME280;22011;59.912;30.300;2022-07-10T12:08:42;100893.66;;;22.96;56.81
35918;BME280;22011;59.912;30.300;2022-07-10T12:11:13;100886.25;;;22.91;56.78
35918;BME280;22011;59.912;30.300;2022-07-10T12:13:41;100881.81;;;22.85;56.14
35918;BME280;22011;59.912;30.300;2022-07-10T12:16:09;100885.72;;;22.77;55.71
35918;BME280;22011;59.912;30.300;2022-07-10T12:18:37;100888.81;;;22.81;55.07
35918;BME280;22011;59.912;30.300;2022-07-10T12:21:06;100887.56;;;22.89;56.73
35918;BME280;22011;59.912;30.300;2022-07-10T12:23:36;100893.91;;;22.94;55.93
35918;BME280;22011;59.912;30.300;2022-07-10T12:26:08;100895.22;;;22.92;55.07
35918;BME280;22011;59.912;30.300;2022-07-10T12:28:55;100900.94;;;23.07;55.15
35918;BME280;22011;59.912;30.300;2022-07-10T12:31:25;100905.19;;;22.86;55.11
35918;BME280;22011;59.912;30.300;2022-07-10T12:33:53;100903.25;;;23.15;54.72
35918;BME280;22011;59.912;30.300;2022-07-10T12:36:24;100893.25;;;22.87;54.67
35918;BME280;22011;59.912;30.300;2022-07-10T12:38:55;100904.38;;;22.86;55.40
35918;BME280;22011;59.912;30.300;2022-07-10T12:41:24;100906.16;;;22.80;56.10
35918;BME280;22011;59.912;30.300;2022-07-10T12:43:53;100902.75;;;22.73;55.37
35918;BME280;22011;59.912;30.300;2022-07-10T12:46:22;100906.41;;;22.67;55.37
35918;BME280;22011;59.912;30.300;2022-07-10T12:49:04;100904.19;;;22.92;58.92
35918;BME280;22011;59.912;30.300;2022-07-10T12:51:34;100900.59;;;22.87;55.33
35918;BME280;22011;59.912;30.300;2022-07-10T12:54:03;100907.09;;;22.74;53.58
35918;BME280;22011;59.912;30.300;2022-07-10T12:56:34;100908.88;;;22.80;53.55
35918;BME280;22011;59.912;30.300;2022-07-10T12:59:13;100920.97;;;22.89;55.23
35918;BME280;22011;59.912;30.300;2022-07-10T13:01:42;100915.84;;;22.76;54.01